createdAt,value
2022-08-27T00:01:23.081Z,18.40
2022-08-27T00:03:52.365Z,18.40
2022-08-27T00:06:22.267Z,18.50
2022-08-27T00:08:50.222Z,18.40
2022-08-27T00:11:18.984Z,18.30
2022-08-27T00:13:46.849Z,18.30
2022-08-27T00:16:15.685Z,18.30
2022-08-27T00:18:44.383Z,18.30
2022-08-27T00:21:17.356Z,18.30
2022-08-27T00:23:45.324Z,18.20
2022-08-27T00:26:13.428Z,18.30
2022-08-27T00:28:41.400Z,18.20
2022-08-27T00:31:12.237Z,18.40
2022-08-27T00:33:40.560Z,18.30
2022-08-27T00:36:09.223Z,18.20
2022-08-27T00:38:38.555Z,18.20
2022-08-27T00:41:08.801Z,18.20
2022-08-27T00:43:45.456Z,18.30
2022-08-27T00:46:18.927Z,18.40
2022-08-27T00:48:46.783Z,18.30
2022-08-27T00:51:14.623Z,18.10
2022-08-27T00:53:43.893Z,18.00
2022-08-27T00:56:15.585Z,18.00
2022-08-27T00:58:44.592Z,18.20
2022-08-27T01:01:14.370Z,18.20
2022-08-27T01:03:42.605Z,18.10
2022-08-27T01:06:11.808Z,18.10
2022-08-27T01:08:47.516Z,18.10
2022-08-27T01:11:15.345Z,18.10
2022-08-27T01:13:59.919Z,18.00
2022-08-27T01:16:33.051Z,18.20
2022-08-27T01:19:01.847Z,18.20
2022-08-27T01:21:31.907Z,18.40
2022-08-27T01:24:04.410Z,18.50
2022-08-27T01:26:33.653Z,18.20
2022-08-27T01:29:01.512Z,18.20
2022-08-27T01:31:29.859Z,17.90
2022-08-27T01:33:59.278Z,17.90
2022-08-27T01:36:27.223Z,18.00
2022-08-27T01:38:55.100Z,18.00
2022-08-27T01:41:25.467Z,18.00
2022-08-27T01:43:54.691Z,18.30
2022-08-27T01:46:22.971Z,18.20
2022-08-27T01:48:50.917Z,18.40
2022-08-27T01:51:19.419Z,18.10
2022-08-27T01:53:47.317Z,17.90
2022-08-27T01:56:15.767Z,17.80
2022-08-27T01:58:43.714Z,17.80
2022-08-27T02:01:13.946Z,17.80
2022-08-27T02:03:41.939Z,18.00
2022-08-27T02:06:10.878Z,17.80
2022-08-27T02:08:38.771Z,17.90
2022-08-27T02:11:08.150Z,18.00
2022-08-27T02:13:36.059Z,18.10
2022-08-27T02:16:04.409Z,17.90
2022-08-27T02:18:33.737Z,18.00
2022-08-27T02:21:49.339Z,18.00
2022-08-27T02:24:17.239Z,17.70
2022-08-27T02:26:45.203Z,17.90
2022-08-27T02:29:13.112Z,17.70
2022-08-27T02:31:42.108Z,17.70
2022-08-27T02:34:11.369Z,17.70
2022-08-27T02:36:39.184Z,17.60
2022-08-27T02:39:07.182Z,17.70
2022-08-27T02:41:35.942Z,17.80
2022-08-27T02:44:04.121Z,17.80
2022-08-27T02:46:38.669Z,17.70
2022-08-27T02:49:07.309Z,17.80
2022-08-27T02:51:36.559Z,17.80
2022-08-27T02:54:04.624Z,17.80
2022-08-27T02:56:35.931Z,17.80
2022-08-27T02:59:03.780Z,17.80
2022-08-27T03:01:31.639Z,17.70
2022-08-27T03:03:59.541Z,17.80
2022-08-27T03:06:27.403Z,17.80
2022-08-27T03:08:56.564Z,17.80
2022-08-27T03:11:25.087Z,17.90
2022-08-27T03:13:53.040Z,17.90
2022-08-27T03:16:21.220Z,18.00
2022-08-27T03:18:48.151Z,18.00
2022-08-27T03:21:17.770Z,18.00
2022-08-27T03:23:45.592Z,17.90
2022-08-27T03:26:14.807Z,17.90
2022-08-27T03:28:42.660Z,17.80
2022-08-27T03:31:15.633Z,17.70
2022-08-27T03:33:43.544Z,17.60
2022-08-27T03:36:11.380Z,17.90
2022-08-27T03:38:39.367Z,17.80
2022-08-27T03:41:07.432Z,17.90
2022-08-27T03:43:36.584Z,17.80
2022-08-27T03:46:04.404Z,17.70
2022-08-27T03:48:32.402Z,17.80
2022-08-27T03:51:00.414Z,17.80
2022-08-27T03:53:28.327Z,17.80
2022-08-27T03:55:56.153Z,17.80
2022-08-27T03:58:23.952Z,17.80
2022-08-27T04:00:53.109Z,17.70
2022-08-27T04:03:20.918Z,18.10
2022-08-27T04:05:53.561Z,18.10
2022-08-27T04:08:21.627Z,17.70
2022-08-27T04:10:49.939Z,17.60
2022-08-27T04:13:17.785Z,17.60
2022-08-27T04:15:45.882Z,17.90
2022-08-27T04:18:16.552Z,17.70
2022-08-27T04:20:44.507Z,17.70
2022-08-27T04:23:12.395Z,17.50
2022-08-27T04:25:41.030Z,17.60
2022-08-27T04:28:09.068Z,17.60
2022-08-27T04:30:39.947Z,17.80
2022-08-27T04:33:07.785Z,17.50
2022-08-27T04:35:36.993Z,17.50
2022-08-27T04:38:05.020Z,17.60
2022-08-27T04:40:46.867Z,17.70
2022-08-27T04:43:16.632Z,17.70
2022-08-27T04:45:45.693Z,17.70
2022-08-27T04:48:14.085Z,17.70
2022-08-27T04:50:44.071Z,17.70
2022-08-27T04:53:12.718Z,17.70
2022-08-27T04:55:43.757Z,17.60
2022-08-27T04:58:11.695Z,17.50
2022-08-27T05:00:43.672Z,17.50
2022-08-27T05:03:11.584Z,17.60
2022-08-27T05:05:42.559Z,17.50
2022-08-27T05:08:13.074Z,17.50
2022-08-27T05:10:41.972Z,17.50
2022-08-27T05:13:09.795Z,17.60
2022-08-27T05:15:37.694Z,17.70
2022-08-27T05:18:05.839Z,17.70
2022-08-27T05:20:33.731Z,17.70
2022-08-27T05:23:01.592Z,17.60
2022-08-27T05:25:30.756Z,17.60
2022-08-27T05:27:58.616Z,17.60
2022-08-27T05:30:26.489Z,17.60
2022-08-27T05:32:54.309Z,17.80
2022-08-27T05:35:22.343Z,18.00
2022-08-27T05:37:50.159Z,17.90
2022-08-27T05:40:18.175Z,18.00
2022-08-27T05:42:50.144Z,18.00
2022-08-27T05:45:19.380Z,18.00
2022-08-27T05:47:47.216Z,17.70
2022-08-27T05:50:15.302Z,17.40
2022-08-27T05:52:43.138Z,17.50
2022-08-27T05:55:11.579Z,17.80
2022-08-27T05:57:39.400Z,17.80
2022-08-27T06:00:27.540Z,17.80
2022-08-27T06:02:55.421Z,17.80
2022-08-27T06:05:23.337Z,17.90
2022-08-27T06:07:51.187Z,18.00
2022-08-27T06:10:19.229Z,18.00
2022-08-27T06:12:47.059Z,17.90
2022-08-27T06:15:16.215Z,18.10
2022-08-27T06:17:44.039Z,18.20
2022-08-27T06:20:12.122Z,18.00
2022-08-27T06:22:39.951Z,18.00
2022-08-27T06:25:08.340Z,18.00
2022-08-27T06:27:36.234Z,18.00
2022-08-27T06:30:04.158Z,18.10
2022-08-27T06:32:33.320Z,18.10
2022-08-27T06:35:01.131Z,18.20
2022-08-27T06:37:29.214Z,18.20
2022-08-27T06:39:57.061Z,18.20
2022-08-27T06:42:24.903Z,18.30
2022-08-27T06:44:54.294Z,18.30
2022-08-27T06:47:22.321Z,18.40
2022-08-27T06:49:51.488Z,18.30
2022-08-27T06:52:19.315Z,18.30
2022-08-27T06:54:47.094Z,18.50
2022-08-27T06:57:14.911Z,18.50
2022-08-27T06:59:43.201Z,18.50
2022-08-27T07:02:11.161Z,18.60
2022-08-27T07:04:38.993Z,18.50
2022-08-27T07:07:08.185Z,18.60
2022-08-27T07:09:36.023Z,18.60
2022-08-27T07:12:04.300Z,18.60
2022-08-27T07:14:37.111Z,18.70
2022-08-27T07:17:06.078Z,18.90
2022-08-27T07:19:41.052Z,18.90
2022-08-27T07:22:10.843Z,18.90
2022-08-27T07:24:38.703Z,18.70
2022-08-27T07:27:07.061Z,18.80
2022-08-27T07:29:34.877Z,18.70
2022-08-27T07:32:02.829Z,18.50
2022-08-27T07:34:30.643Z,18.40
2022-08-27T07:36:58.456Z,18.40
2022-08-27T07:39:27.617Z,18.50
2022-08-27T07:42:14.973Z,18.80
2022-08-27T07:44:42.800Z,18.90
2022-08-27T07:47:10.614Z,18.80
2022-08-27T07:49:38.445Z,18.60
2022-08-27T07:52:06.290Z,18.70
2022-08-27T07:54:35.489Z,18.80
2022-08-27T07:57:03.429Z,18.80
2022-08-27T07:59:31.252Z,18.90
2022-08-27T08:01:59.145Z,18.90
2022-08-27T08:04:27.270Z,19.00
2022-08-27T08:06:55.543Z,19.20
2022-08-27T08:09:24.003Z,19.30
2022-08-27T08:11:53.325Z,19.40
2022-08-27T08:14:21.370Z,19.60
2022-08-27T08:16:49.517Z,19.60
2022-08-27T08:19:17.507Z,19.70
2022-08-27T08:21:45.293Z,19.80
2022-08-27T08:24:13.135Z,20.00
2022-08-27T08:26:41.990Z,20.00
2022-08-27T08:29:13.742Z,20.10
2022-08-27T08:31:46.879Z,20.20
2022-08-27T08:34:18.598Z,20.20
2022-08-27T08:36:51.076Z,20.40
2022-08-27T08:39:22.493Z,20.60
2022-08-27T08:41:51.782Z,20.50
2022-08-27T08:44:31.015Z,20.50
2022-08-27T08:47:01.246Z,20.50
2022-08-27T08:49:35.074Z,20.30
2022-08-27T08:52:09.671Z,20.30
2022-08-27T08:54:38.572Z,20.50
2022-08-27T08:57:07.730Z,20.50
2022-08-27T08:59:38.816Z,20.50
2022-08-27T09:02:10.186Z,20.50
2022-08-27T09:04:41.026Z,20.40
2022-08-27T09:07:10.594Z,20.40
2022-08-27T09:09:39.286Z,20.30
2022-08-27T09:12:11.718Z,20.50
2022-08-27T09:14:46.299Z,20.30
2022-08-27T09:17:14.797Z,20.40
2022-08-27T09:19:42.874Z,20.40
2022-08-27T09:22:16.068Z,20.30
2022-08-27T09:24:46.976Z,20.20
2022-08-27T09:27:15.162Z,20.30
2022-08-27T09:29:49.631Z,20.10
2022-08-27T09:32:17.452Z,20.30
2022-08-27T09:34:45.979Z,20.10
2022-08-27T09:37:16.761Z,20.30
2022-08-27T09:39:52.996Z,20.40
2022-08-27T09:42:25.867Z,20.20
2022-08-27T09:44:55.633Z,20.10
2022-08-27T09:47:23.683Z,20.20
2022-08-27T09:50:06.870Z,20.10
2022-08-27T09:52:37.783Z,20.30
2022-08-27T09:55:06.960Z,20.20
2022-08-27T09:57:35.900Z,20.30
2022-08-27T10:00:08.140Z,20.50
2022-08-27T10:02:35.969Z,20.50
2022-08-27T10:05:05.035Z,20.40
2022-08-27T10:07:40.500Z,20.60
2022-08-27T10:10:11.728Z,20.40
2022-08-27T10:12:45.948Z,20.50
2022-08-27T10:15:15.640Z,20.70
2022-08-27T10:17:48.171Z,20.70
2022-08-27T10:20:21.627Z,20.80
2022-08-27T10:22:58.593Z,20.80
2022-08-27T10:25:31.891Z,20.80
2022-08-27T10:28:05.859Z,20.80
2022-08-27T10:30:43.596Z,21.00
2022-08-27T10:33:14.977Z,21.20
2022-08-27T10:35:54.880Z,21.40
2022-08-27T10:38:44.693Z,21.70
2022-08-27T10:41:16.990Z,21.90
2022-08-27T10:43:58.494Z,22.00
2022-08-27T10:46:49.851Z,22.10
2022-08-27T10:49:21.582Z,22.40
2022-08-27T10:51:52.068Z,22.90
2022-08-27T10:54:23.383Z,23.60
2022-08-27T10:57:08.443Z,23.90
2022-08-27T10:59:44.119Z,23.90
2022-08-27T11:02:16.100Z,24.90
2022-08-27T11:04:46.840Z,24.30
2022-08-27T11:07:18.130Z,24.10
2022-08-27T11:09:48.632Z,24.10
2022-08-27T11:12:18.662Z,24.80
2022-08-27T11:14:48.973Z,24.40
2022-08-27T11:17:21.133Z,24.10
2022-08-27T11:20:00.333Z,23.90
2022-08-27T11:22:31.281Z,24.70
2022-08-27T11:25:02.453Z,24.90
2022-08-27T11:27:31.395Z,25.00
2022-08-27T11:30:00.761Z,24.90
2022-08-27T11:32:31.581Z,24.70
2022-08-27T11:35:00.381Z,24.50
2022-08-27T11:37:45.888Z,24.20
2022-08-27T11:40:38.196Z,24.60
2022-08-27T11:43:06.961Z,24.40
2022-08-27T11:45:38.572Z,24.80
2022-08-27T11:48:18.670Z,25.20
2022-08-27T11:50:54.802Z,25.40
2022-08-27T11:53:28.414Z,25.50
2022-08-27T11:55:56.605Z,25.90
2022-08-27T11:58:30.401Z,26.00
2022-08-27T12:06:45.516Z,26.90
2022-08-27T12:09:18.199Z,27.00
2022-08-27T12:11:53.371Z,27.00
2022-08-27T12:14:32.221Z,27.10
2022-08-27T12:17:02.549Z,26.70
2022-08-27T12:19:43.144Z,25.80
2022-08-27T12:22:21.853Z,25.20
2022-08-27T12:24:52.953Z,25.10
2022-08-27T12:27:34.403Z,24.90
2022-08-27T12:30:06.854Z,24.60
2022-08-27T12:32:38.758Z,24.20
2022-08-27T12:35:11.141Z,23.90
2022-08-27T12:37:41.277Z,24.40
2022-08-27T12:40:21.342Z,24.40
2022-08-27T12:42:52.700Z,24.60
2022-08-27T12:45:22.877Z,25.00
2022-08-27T12:47:51.266Z,24.70
2022-08-27T12:50:24.985Z,24.70
2022-08-27T12:53:02.059Z,24.60
2022-08-27T12:55:37.015Z,24.90
2022-08-27T12:58:14.826Z,25.30
2022-08-27T13:00:59.905Z,25.50
2022-08-27T13:03:32.315Z,25.80
2022-08-27T13:06:01.853Z,25.80
2022-08-27T13:08:30.797Z,25.80
2022-08-27T13:11:19.308Z,25.80
2022-08-27T13:13:47.502Z,25.40
2022-08-27T13:16:15.382Z,24.70
2022-08-27T13:18:58.190Z,24.60
2022-08-27T13:21:28.559Z,24.50
2022-08-27T13:23:58.387Z,24.40
2022-08-27T13:26:29.662Z,23.80
2022-08-27T13:29:03.098Z,23.70
2022-08-27T13:31:31.650Z,23.20
2022-08-27T13:33:59.684Z,23.20
2022-08-27T13:36:31.028Z,23.20
2022-08-27T13:39:16.918Z,23.10
2022-08-27T13:41:44.793Z,23.20
2022-08-27T13:44:14.397Z,23.40
2022-08-27T13:46:46.527Z,23.40
2022-08-27T13:49:16.621Z,23.40
2022-08-27T13:51:47.664Z,23.30
2022-08-27T13:54:15.686Z,23.30
2022-08-27T13:56:58.031Z,23.30
2022-08-27T13:59:27.549Z,23.20
2022-08-27T14:02:01.000Z,23.20
2022-08-27T14:04:36.326Z,23.10
2022-08-27T14:07:11.607Z,23.30
2022-08-27T14:09:43.764Z,22.90
2022-08-27T14:12:11.639Z,22.70
2022-08-27T14:14:40.278Z,22.60
2022-08-27T14:17:20.811Z,22.50
2022-08-27T14:19:49.601Z,22.50
2022-08-27T14:22:19.600Z,22.60
2022-08-27T14:24:47.724Z,22.60
2022-08-27T14:27:15.943Z,22.50
2022-08-27T14:29:43.975Z,22.40
2022-08-27T14:32:11.815Z,22.20
2022-08-27T14:34:39.619Z,22.20
2022-08-27T14:37:07.758Z,22.20
2022-08-27T14:39:37.060Z,22.10
2022-08-27T14:42:05.457Z,22.10
2022-08-27T14:44:33.318Z,22.10
2022-08-27T14:47:02.366Z,22.00
2022-08-27T14:49:32.491Z,21.90
2022-08-27T14:52:00.307Z,21.70
2022-08-27T14:54:29.040Z,21.60
2022-08-27T14:57:02.840Z,21.60
2022-08-27T14:59:30.944Z,21.60
2022-08-27T15:01:59.287Z,21.60
2022-08-27T15:04:27.398Z,21.70
2022-08-27T15:06:56.529Z,21.80
2022-08-27T15:09:24.455Z,21.80
2022-08-27T15:11:52.303Z,21.90
2022-08-27T15:14:23.520Z,21.90
2022-08-27T15:16:52.745Z,21.80
2022-08-27T15:19:20.832Z,21.90
2022-08-27T15:21:48.890Z,21.80
2022-08-27T15:24:18.009Z,21.90
2022-08-27T15:26:45.888Z,21.80
2022-08-27T15:29:13.684Z,21.90
2022-08-27T15:31:43.011Z,21.90
2022-08-27T15:34:10.938Z,22.10
2022-08-27T15:36:38.782Z,22.30
2022-08-27T15:39:06.708Z,22.40
2022-08-27T15:41:46.057Z,22.50
2022-08-27T15:44:22.379Z,22.50
2022-08-27T15:46:51.893Z,22.30
2022-08-27T15:49:19.697Z,22.30
2022-08-27T15:51:47.521Z,22.40
2022-08-27T15:54:15.327Z,22.40
2022-08-27T15:56:43.145Z,22.40
2022-08-27T15:59:10.961Z,21.70
2022-08-27T16:01:38.934Z,21.50
2022-08-27T16:04:08.137Z,21.30
2022-08-27T16:06:35.965Z,21.50
2022-08-27T16:09:04.018Z,21.50
2022-08-27T16:11:32.467Z,21.20
2022-08-27T16:14:01.351Z,21.30
2022-08-27T16:16:29.928Z,21.00
2022-08-27T16:18:57.747Z,21.20
2022-08-27T16:21:27.507Z,21.10
2022-08-27T16:23:55.358Z,20.90
2022-08-27T16:26:23.360Z,20.70
2022-08-27T16:28:51.184Z,20.70
2022-08-27T16:31:19.186Z,20.70
2022-08-27T16:33:47.051Z,20.60
2022-08-27T16:36:15.043Z,20.70
2022-08-27T16:38:44.219Z,20.50
2022-08-27T16:41:12.088Z,20.60
2022-08-27T16:43:40.311Z,20.60
2022-08-27T16:46:08.191Z,20.50
2022-08-27T16:49:01.511Z,20.30
2022-08-27T16:51:33.190Z,20.50
2022-08-27T16:54:04.629Z,20.60
2022-08-27T16:56:37.102Z,20.50
2022-08-27T16:59:05.694Z,20.50
2022-08-27T17:01:34.214Z,20.50
2022-08-27T17:04:09.853Z,20.40
2022-08-27T17:06:41.037Z,20.50
2022-08-27T17:09:11.760Z,20.50
2022-08-27T17:11:41.855Z,20.50
2022-08-27T17:14:10.627Z,20.50
2022-08-27T17:16:38.795Z,20.40
2022-08-27T17:19:06.997Z,20.30
2022-08-27T17:21:34.883Z,20.30
2022-08-27T17:24:02.958Z,20.40
2022-08-27T17:26:33.829Z,20.50
2022-08-27T17:29:01.694Z,20.60
2022-08-27T17:31:31.003Z,20.60
2022-08-27T17:33:59.695Z,20.50
2022-08-27T17:36:27.880Z,20.50
2022-08-27T17:38:55.730Z,20.50
2022-08-27T17:41:25.479Z,20.40
2022-08-27T17:43:57.672Z,20.30
2022-08-27T17:46:25.787Z,20.10
2022-08-27T17:48:53.651Z,20.10
2022-08-27T17:51:21.759Z,20.10
2022-08-27T17:53:51.051Z,19.90
2022-08-27T17:56:19.804Z,19.80
2022-08-27T17:58:47.860Z,19.80
2022-08-27T18:01:17.107Z,19.70
2022-08-27T18:03:48.024Z,19.70
2022-08-27T18:06:16.101Z,19.80
2022-08-27T18:08:43.922Z,19.60
2022-08-27T18:11:12.209Z,19.50
2022-08-27T18:13:40.026Z,19.70
2022-08-27T18:16:08.287Z,19.60
2022-08-27T18:18:38.260Z,19.70
2022-08-27T18:21:09.958Z,19.80
2022-08-27T18:23:38.020Z,19.80
2022-08-27T18:26:06.175Z,19.70
2022-08-27T18:28:34.174Z,19.70
2022-08-27T18:31:05.493Z,19.50
2022-08-27T18:33:34.483Z,19.60
2022-08-27T18:36:03.979Z,19.50
2022-08-27T18:38:31.963Z,19.30
2022-08-27T18:41:00.406Z,19.40
2022-08-27T18:43:32.887Z,19.40
2022-08-27T18:46:00.735Z,19.10
2022-08-27T18:48:28.571Z,19.20
2022-08-27T18:51:01.415Z,19.50
2022-08-27T18:53:32.246Z,19.30
2022-08-27T18:56:00.320Z,19.20
2022-08-27T18:58:28.138Z,19.10
2022-08-27T19:00:57.571Z,18.90
2022-08-27T19:03:27.328Z,18.90
2022-08-27T19:05:56.054Z,18.90
2022-08-27T19:08:24.188Z,19.00
2022-08-27T19:10:53.327Z,18.90
2022-08-27T19:13:21.215Z,18.90
2022-08-27T19:15:51.005Z,18.70
2022-08-27T19:18:18.944Z,18.70
2022-08-27T19:20:46.750Z,18.80
2022-08-27T19:23:14.567Z,18.80
2022-08-27T19:25:50.054Z,18.70
2022-08-27T19:28:20.540Z,18.80
2022-08-27T19:30:48.343Z,18.90
2022-08-27T19:33:16.162Z,18.80
2022-08-27T19:35:44.081Z,18.70
2022-08-27T19:38:12.166Z,18.70
2022-08-27T19:40:40.086Z,18.70
2022-08-27T19:43:07.910Z,18.50
2022-08-27T19:45:40.427Z,18.50
2022-08-27T19:51:55.992Z,18.30
2022-08-27T19:54:23.806Z,18.20
2022-08-27T19:57:15.650Z,18.30
2022-08-27T20:00:24.589Z,18.20
2022-08-27T20:06:44.350Z,18.20
2022-08-27T20:09:15.968Z,18.20
2022-08-27T20:11:45.841Z,18.20
2022-08-27T20:14:13.872Z,18.20
2022-08-27T20:16:41.775Z,18.20
2022-08-27T20:22:59.259Z,18.20
2022-08-27T20:25:27.189Z,18.10
2022-08-27T20:27:55.069Z,18.20
2022-08-27T20:30:23.970Z,18.10
2022-08-27T20:32:51.861Z,18.20
2022-08-27T20:35:20.127Z,18.20
2022-08-27T20:37:48.016Z,18.20
2022-08-27T20:40:18.911Z,18.20
2022-08-27T20:42:46.821Z,18.30
2022-08-27T20:45:14.795Z,18.40
2022-08-27T20:47:43.235Z,18.80
2022-08-27T20:50:11.875Z,18.70
2022-08-27T20:52:39.972Z,18.40
2022-08-27T20:55:08.942Z,18.40
2022-08-27T20:57:38.202Z,18.40
2022-08-27T21:00:21.383Z,18.50
2022-08-27T21:02:49.277Z,18.50
2022-08-27T21:05:17.755Z,18.60
2022-08-27T21:07:48.453Z,18.40
2022-08-27T21:10:16.382Z,18.60
2022-08-27T21:12:45.595Z,18.70
2022-08-27T21:15:13.699Z,18.40
2022-08-27T21:17:41.623Z,18.60
2022-08-27T21:20:10.900Z,18.70
2022-08-27T21:22:39.154Z,18.50
2022-08-27T21:25:07.616Z,18.70
2022-08-27T21:27:35.610Z,18.70
2022-08-27T21:30:05.959Z,18.80
2022-08-27T21:32:33.938Z,18.60
2022-08-27T21:35:01.931Z,18.50
2022-08-27T21:37:29.834Z,18.60
2022-08-27T21:39:57.747Z,18.60
2022-08-27T21:42:25.674Z,18.60
2022-08-27T21:44:53.631Z,18.70
2022-08-27T21:47:22.880Z,18.50
2022-08-27T21:49:50.760Z,18.50
2022-08-27T21:52:18.667Z,18.20
2022-08-27T21:54:46.612Z,18.30
2022-08-27T21:57:15.771Z,18.60
2022-08-27T21:59:45.827Z,18.70
2022-08-27T22:02:38.347Z,18.30
2022-08-27T22:05:03.496Z,18.20
2022-08-27T22:07:31.458Z,18.20
2022-08-27T22:09:59.370Z,18.20
2022-08-27T22:12:27.394Z,18.20
2022-08-27T22:14:55.769Z,18.10
2022-08-27T22:17:23.769Z,18.10
2022-08-27T22:19:51.709Z,18.20
2022-08-27T22:22:21.217Z,18.00
2022-08-27T22:24:49.127Z,18.10
2022-08-27T22:27:17.100Z,18.10
2022-08-27T22:29:45.035Z,18.10
2022-08-27T22:32:12.922Z,18.00
2022-08-27T22:34:40.832Z,18.10
2022-08-27T22:37:08.752Z,18.10
2022-08-27T22:39:39.041Z,18.20
2022-08-27T22:42:07.197Z,18.30
2022-08-27T22:44:35.158Z,18.10
2022-08-27T22:47:03.140Z,18.10
2022-08-27T22:49:31.223Z,18.30
2022-08-27T22:51:59.127Z,18.20
2022-08-27T22:54:27.017Z,18.20
2022-08-27T22:56:56.276Z,18.30
2022-08-27T22:59:24.151Z,18.20
2022-08-27T23:01:52.061Z,18.20
2022-08-27T23:04:21.863Z,18.40
2022-08-27T23:06:53.342Z,18.50
2022-08-27T23:09:21.514Z,18.50
2022-08-27T23:11:50.714Z,18.60
2022-08-27T23:14:20.097Z,18.30
2022-08-27T23:16:47.986Z,18.40
2022-08-27T23:19:16.391Z,18.30
2022-08-27T23:21:44.358Z,18.10
2022-08-27T23:24:12.255Z,18.10
2022-08-27T23:26:57.539Z,18.20
2022-08-27T23:29:26.978Z,18.20
2022-08-27T23:31:58.088Z,18.30
2022-08-27T23:34:26.113Z,18.10
2022-08-27T23:36:54.036Z,18.10
2022-08-27T23:39:22.086Z,17.90
2022-08-27T23:41:49.977Z,17.90
2022-08-27T23:44:17.951Z,18.00
2022-08-27T23:46:48.585Z,18.10
2022-08-27T23:49:19.359Z,18.20
2022-08-27T23:51:47.272Z,18.20
2022-08-27T23:54:15.099Z,18.10
2022-08-27T23:56:42.932Z,18.00
2022-08-27T23:59:10.831Z,18.20
